Portada
METAR-TAF:

METAR-TAF

Aeroports :

Miho-Yonago, Japó

latitud: 35-29N, longitud: 133-15E, altitud: 6 m

Observació

L'informe es va fer fa 15 minuts, a les 03:00 UTC
Vent 5 kt del Nord-Est
Temperatura 21°C
Humitat 49%
Pressió 1019 hPa
Visibilitat 10 km o més
Escasses núvols a una alçada de 5000 ft

METAR: RJOH 270300Z 05005KT 9999 FEW050 21/10 Q1019

Hora: 12:15 (03:15 UTC)

Pronòstic

L'informe es va fer fa 4 hores i 8 minuts, a les 23:07 UTC
Pronòstic vàlid del 27 a les 00 UTC al 28 a les 06 UTC
Vent 4 kt del Sud
Visibilitat 10 km o més
Escasses núvols a una alçada de 4000 ft
Evolucionant progressivament
l' 27 a les 01 UTC al 27 a les 03 UTC
Vent 6 kt del Nord-Est
Evolucionant progressivament
l' 27 a les 10 UTC al 27 a les 12 UTC
Vent 5 kt del Sud
Evolucionant progressivament
l' 28 a les 00 UTC al 28 a les 03 UTC
Vent 14 kt del Oest

TAF: RJOH 262307Z 2700/2806 17004KT 9999 FEW040 BECMG 2701/2703 04006KT BECMG 2710/2712 18005KT BECMG 2800/2803 26014KT

Observacions i pronòstics meteorològics de més de 4000 aeroports (METAR i TAF).

Les estacions disponibles són els punts grocs i vermells al mapa.

Posi el ratolí al punt desitjat per veure el nom de l'estació.

Feu clic per veure les observacions i els pronòstics meteorològics.

Per canviar el mapa: feu clic els botons verds amb una creu de color negre per apropar; al botó verd amb un guió per allunyar la imatge; o en les fletxes verdes per a mapes adjacents.


METAR-TAF: